Kitty C — 2EIQ6 — position and weather

sailwx.info

Track history (hours):
 
Tides and Currents Weather Stations Pressure Air Temp Water Temp Dewpoint Dewpoint Depression Visibility Wind Speed Wind Dir Waves Ship Positions

Kitty C

Last reported at 2015-Jul-28 00:33 UTC. Time now 2015-Aug-04 17:58 UTC.
Position N 50°32' W 001°54'.

Length 106 m; draft 6.7 m.

Type: Cargo ship. MMSI: 235085464.

Date/timePositionNaut miles runAvg speedWind from/ knotsBaromVisibWave heightAir tempDewpointWater temp
2015-Jul-28 00:33N 50°32' W 001°54'8 8.4
2015-Jul-27 23:34N 50°37' W 001°43'10 9.8
2015-Jul-27 22:33N 50°43' W 001°31'1010.4
2015-Jul-27 21:33N 50°49' W 001°18'6 0.2
2015-Jul-26 15:31N 50°53' W 001°24'0 0.0
2015-Jul-26 14:31N 50°53' W 001°24'0 0.0
2015-Jul-26 13:28N 50°53' W 001°24'0 0.0
2015-Jul-26 12:31N 50°53' W 001°24'0 0.0
2015-Jul-26 11:25N 50°53' W 001°24'2 2.0
2015-Jul-26 10:33N 50°52' W 001°22'7 6.8
2015-Jul-26 09:33N 50°45' W 001°23'5 5.2
2015-Jul-26 08:30N 50°43' W 001°31'8 8.5
2015-Jul-26 07:33N 50°37' W 001°41'9 8.9
2015-Jul-26 06:32N 50°33' W 001°53'  
2015-Jul-22 02:15N 39°18' W 009°51'6 7.9
2015-Jul-22 01:33N 39°13' W 009°51'8 8.3
2015-Jul-22 00:33N 39°04' W 009°51'8 8.3
2015-Jul-21 23:33N 38°56' W 009°52'8 8.1
2015-Jul-21 22:33N 38°48' W 009°51'8 7.7
2015-Jul-21 21:33N 38°40' W 009°51'8 7.6
2015-Jul-21 20:33N 38°33' W 009°48'8 7.9
2015-Jul-21 19:33N 38°25' W 009°46'8 7.6
2015-Jul-21 18:33N 38°18' W 009°44'8 7.6
2015-Jul-21 17:33N 38°10' W 009°42'7 7.6
2015-Jul-21 16:33N 38°03' W 009°40'8 7.5
2015-Jul-21 15:33N 37°56' W 009°38'8 7.9
2015-Jul-21 14:33N 37°48' W 009°36'8 8.3
2015-Jul-21 13:33N 37°40' W 009°33'9 8.4
2015-Jul-21 12:32N 37°32' W 009°31'9 8.4
2015-Jul-21 11:32N 37°23' W 009°29'9 8.4
2015-Jul-21 10:29N 37°15' W 009°26'8 8.0
2015-Jul-21 09:29N 37°07' W 009°24'9 8.1
2015-Jul-21 08:26N 36°59' W 009°21'8 7.6
2015-Jul-21 07:24N 36°52' W 009°17'34 7.9
2015-Jul-21 03:08N 36°41' W 008°37'5 8.5
2015-Jul-21 02:33N 36°41' W 008°31'8 8.3
2015-Jul-21 01:33N 36°41' W 008°21'8 8.1
2015-Jul-21 00:33N 36°40' W 008°11'9 8.5
2015-Jul-20 23:33N 36°39' W 008°00'  
2015-Jul-18 01:25N 36°21' W 002°53'910.3
2015-Jul-18 00:34N 36°22' W 002°43'  
Track history (hours):
 
Tides and Currents Weather Stations Pressure Air Temp Water Temp Dewpoint Dewpoint Depression Visibility Wind Speed Wind Dir Waves Ship Positions

Kitty C

Last reported at 2015-Jul-28 00:33 UTC. Time now 2015-Aug-04 17:58 UTC.
Position N 50°32' W 001°54'.

Length 106 m; draft 6.7 m.

Type: Cargo ship. MMSI: 235085464.

Date/timePositionNaut miles runAvg speedWind from/ knotsBaromVisibWave heightAir tempDewpointWater temp
2015-Jul-28 00:33N 50°32' W 001°54'8 8.4
2015-Jul-27 23:34N 50°37' W 001°43'10 9.8
2015-Jul-27 22:33N 50°43' W 001°31'1010.4
2015-Jul-27 21:33N 50°49' W 001°18'6 0.2
2015-Jul-26 15:31N 50°53' W 001°24'0 0.0
2015-Jul-26 14:31N 50°53' W 001°24'0 0.0
2015-Jul-26 13:28N 50°53' W 001°24'0 0.0
2015-Jul-26 12:31N 50°53' W 001°24'0 0.0
2015-Jul-26 11:25N 50°53' W 001°24'2 2.0
2015-Jul-26 10:33N 50°52' W 001°22'7 6.8
2015-Jul-26 09:33N 50°45' W 001°23'5 5.2
2015-Jul-26 08:30N 50°43' W 001°31'8 8.5
2015-Jul-26 07:33N 50°37' W 001°41'9 8.9
2015-Jul-26 06:32N 50°33' W 001°53'  
2015-Jul-22 02:15N 39°18' W 009°51'6 7.9
2015-Jul-22 01:33N 39°13' W 009°51'8 8.3
2015-Jul-22 00:33N 39°04' W 009°51'8 8.3
2015-Jul-21 23:33N 38°56' W 009°52'8 8.1
2015-Jul-21 22:33N 38°48' W 009°51'8 7.7
2015-Jul-21 21:33N 38°40' W 009°51'8 7.6
2015-Jul-21 20:33N 38°33' W 009°48'8 7.9
2015-Jul-21 19:33N 38°25' W 009°46'8 7.6
2015-Jul-21 18:33N 38°18' W 009°44'8 7.6
2015-Jul-21 17:33N 38°10' W 009°42'7 7.6
2015-Jul-21 16:33N 38°03' W 009°40'8 7.5
2015-Jul-21 15:33N 37°56' W 009°38'8 7.9
2015-Jul-21 14:33N 37°48' W 009°36'8 8.3
2015-Jul-21 13:33N 37°40' W 009°33'9 8.4
2015-Jul-21 12:32N 37°32' W 009°31'9 8.4
2015-Jul-21 11:32N 37°23' W 009°29'9 8.4
2015-Jul-21 10:29N 37°15' W 009°26'8 8.0
2015-Jul-21 09:29N 37°07' W 009°24'9 8.1
2015-Jul-21 08:26N 36°59' W 009°21'8 7.6
2015-Jul-21 07:24N 36°52' W 009°17'34 7.9
2015-Jul-21 03:08N 36°41' W 008°37'5 8.5
2015-Jul-21 02:33N 36°41' W 008°31'8 8.3
2015-Jul-21 01:33N 36°41' W 008°21'8 8.1
2015-Jul-21 00:33N 36°40' W 008°11'9 8.5
2015-Jul-20 23:33N 36°39' W 008°00'  
2015-Jul-18 01:25N 36°21' W 002°53'910.3
2015-Jul-18 00:34N 36°22' W 002°43'  

Dump ship's entire track history